createdAt,value
2023-07-31T00:01:18.489Z,17.02
2023-07-31T00:03:46.300Z,16.98
2023-07-31T00:06:15.428Z,16.93
2023-07-31T00:08:43.005Z,17.04
2023-07-31T00:11:10.624Z,17.18
2023-07-31T00:13:38.211Z,17.15
2023-07-31T00:16:05.872Z,17.27
2023-07-31T00:18:33.494Z,17.20
2023-07-31T00:21:01.116Z,17.25
2023-07-31T00:23:30.065Z,17.10
2023-07-31T00:25:57.678Z,16.43
2023-07-31T00:28:25.369Z,16.45
2023-07-31T00:30:53.044Z,16.56
2023-07-31T00:33:20.694Z,16.27
2023-07-31T00:35:48.741Z,16.27
2023-07-31T00:38:16.356Z,16.61
2023-07-31T00:40:45.315Z,16.56
2023-07-31T00:43:13.039Z,16.63
2023-07-31T00:45:40.729Z,16.66
2023-07-31T00:48:08.808Z,16.82
2023-07-31T00:50:37.706Z,16.45
2023-07-31T00:53:05.473Z,16.61
2023-07-31T00:55:33.341Z,16.68
2023-07-31T00:58:02.346Z,16.58
2023-07-31T01:00:29.942Z,16.07
2023-07-31T01:02:57.824Z,16.24
2023-07-31T01:05:35.746Z,15.90
2023-07-31T01:08:11.052Z,16.19
2023-07-31T01:10:48.776Z,16.00
2023-07-31T01:13:19.887Z,15.98
2023-07-31T01:15:47.538Z,16.05
2023-07-31T01:18:15.207Z,16.14
2023-07-31T01:20:44.469Z,15.96
2023-07-31T01:23:37.205Z,16.16
2023-07-31T01:26:13.409Z,16.35
2023-07-31T01:28:49.561Z,16.05
2023-07-31T01:31:22.954Z,15.99
2023-07-31T01:33:52.384Z,15.80
2023-07-31T01:36:20.159Z,15.73
2023-07-31T01:38:47.823Z,15.91
2023-07-31T01:41:18.751Z,15.97
2023-07-31T01:43:46.536Z,16.37
2023-07-31T01:46:14.177Z,16.49
2023-07-31T01:48:41.896Z,16.50
2023-07-31T01:51:09.486Z,16.25
2023-07-31T01:53:37.150Z,16.31
2023-07-31T01:56:05.049Z,16.56
2023-07-31T01:58:34.026Z,16.34
2023-07-31T02:01:01.669Z,16.44
2023-07-31T02:03:29.386Z,16.45
2023-07-31T02:05:57.850Z,16.36
2023-07-31T02:08:25.476Z,16.34
2023-07-31T02:10:53.546Z,16.31
2023-07-31T02:13:21.179Z,16.24
2023-07-31T02:15:50.314Z,16.14
2023-07-31T02:18:18.033Z,16.11
2023-07-31T02:20:47.289Z,15.99
2023-07-31T02:23:14.896Z,16.21
2023-07-31T02:25:42.532Z,16.16
2023-07-31T02:28:10.164Z,16.23
2023-07-31T02:30:37.830Z,16.23
2023-07-31T02:33:07.157Z,16.20
2023-07-31T02:35:34.825Z,16.14
2023-07-31T02:38:02.492Z,16.16
2023-07-31T02:40:30.130Z,16.18
2023-07-31T02:42:57.882Z,15.78
2023-07-31T02:45:25.513Z,15.98
2023-07-31T02:47:53.163Z,15.97
2023-07-31T02:50:22.310Z,16.03
2023-07-31T02:52:49.932Z,15.99
2023-07-31T02:55:17.665Z,15.83
2023-07-31T02:57:45.263Z,15.91
2023-07-31T03:00:13.319Z,16.02
2023-07-31T03:02:41.020Z,15.94
2023-07-31T03:05:09.435Z,16.06
2023-07-31T03:07:38.473Z,16.07
2023-07-31T03:10:06.943Z,15.79
2023-07-31T03:12:34.602Z,15.57
2023-07-31T03:15:02.244Z,15.78
2023-07-31T03:17:29.949Z,15.55
2023-07-31T03:19:57.679Z,15.92
2023-07-31T03:22:25.320Z,15.60
2023-07-31T03:24:54.405Z,15.93
2023-07-31T03:27:22.012Z,15.95
2023-07-31T03:29:50.869Z,15.83
2023-07-31T03:32:18.459Z,15.51
2023-07-31T03:34:46.182Z,15.77
2023-07-31T03:37:14.003Z,15.78
2023-07-31T03:39:41.601Z,15.72
2023-07-31T03:42:10.558Z,15.97
2023-07-31T03:44:38.204Z,15.94
2023-07-31T03:47:06.684Z,15.83
2023-07-31T03:49:34.379Z,16.05
2023-07-31T03:52:02.108Z,16.03
2023-07-31T03:54:29.714Z,15.99
2023-07-31T03:56:57.790Z,16.00
2023-07-31T03:59:26.739Z,16.03
2023-07-31T04:01:54.462Z,15.96
2023-07-31T04:04:22.757Z,16.11
2023-07-31T04:06:50.425Z,16.14
2023-07-31T04:09:18.178Z,16.14
2023-07-31T04:11:45.824Z,16.01
2023-07-31T04:14:13.478Z,15.58
2023-07-31T04:16:42.772Z,15.68
2023-07-31T04:19:11.728Z,15.72
2023-07-31T04:21:39.360Z,15.66
2023-07-31T04:24:06.992Z,15.77
2023-07-31T04:26:34.767Z,15.90
2023-07-31T04:29:02.375Z,15.76
2023-07-31T04:31:30.702Z,15.88
2023-07-31T04:33:59.692Z,15.93
2023-07-31T04:36:27.346Z,15.84
2023-07-31T04:38:54.962Z,15.90
2023-07-31T04:41:22.804Z,15.67
2023-07-31T04:43:50.421Z,15.77
2023-07-31T04:46:18.083Z,15.78
2023-07-31T04:48:45.944Z,15.87
2023-07-31T04:51:14.965Z,15.89
2023-07-31T04:53:42.605Z,15.90
2023-07-31T04:56:10.194Z,15.93
2023-07-31T04:58:37.827Z,16.00
2023-07-31T05:01:05.476Z,15.75
2023-07-31T05:03:33.592Z,15.96
2023-07-31T05:06:01.448Z,15.90
2023-07-31T05:08:30.394Z,15.96
2023-07-31T05:10:58.022Z,15.73
2023-07-31T05:13:25.639Z,15.60
2023-07-31T05:15:53.377Z,15.88
2023-07-31T05:18:21.015Z,15.92
2023-07-31T05:20:48.644Z,15.95
2023-07-31T05:23:16.252Z,16.00
2023-07-31T05:25:45.214Z,16.19
2023-07-31T05:28:13.663Z,16.00
2023-07-31T05:30:41.320Z,15.93
2023-07-31T05:33:08.988Z,16.03
2023-07-31T05:35:36.702Z,15.84
2023-07-31T05:38:04.323Z,15.67
2023-07-31T05:40:34.274Z,15.72
2023-07-31T05:43:03.194Z,15.75
2023-07-31T05:45:30.780Z,15.80
2023-07-31T05:47:58.552Z,16.03
2023-07-31T05:50:26.271Z,15.93
2023-07-31T05:52:53.985Z,15.68
2023-07-31T05:55:22.277Z,15.84
2023-07-31T05:57:49.876Z,16.05
2023-07-31T06:00:19.104Z,15.79
2023-07-31T06:02:46.846Z,15.93
2023-07-31T06:05:14.483Z,15.17
2023-07-31T06:07:42.117Z,15.36
2023-07-31T06:10:10.422Z,15.49
2023-07-31T06:12:38.270Z,15.63
2023-07-31T06:15:06.986Z,15.47
2023-07-31T06:17:36.048Z,15.53
2023-07-31T06:20:06.134Z,15.64
2023-07-31T06:22:33.940Z,15.68
2023-07-31T06:25:01.521Z,14.77
2023-07-31T06:27:29.156Z,14.66
2023-07-31T06:29:56.774Z,15.11
2023-07-31T06:32:24.814Z,15.07
2023-07-31T06:34:55.175Z,15.17
2023-07-31T06:37:22.969Z,15.38
2023-07-31T06:39:50.565Z,15.41
2023-07-31T06:42:18.171Z,15.50
2023-07-31T06:44:45.789Z,15.64
2023-07-31T06:47:13.483Z,15.87
2023-07-31T06:49:41.206Z,16.08
2023-07-31T06:52:10.737Z,15.89
2023-07-31T06:54:38.336Z,16.03
2023-07-31T06:57:06.647Z,16.05
2023-07-31T06:59:34.250Z,16.25
2023-07-31T07:02:03.692Z,15.96
2023-07-31T07:04:32.658Z,16.12
2023-07-31T07:07:00.220Z,16.24
2023-07-31T07:09:29.174Z,16.37
2023-07-31T07:11:56.767Z,16.48
2023-07-31T07:14:24.406Z,16.47
2023-07-31T07:16:53.177Z,16.45
2023-07-31T07:19:20.897Z,16.33
2023-07-31T07:21:48.481Z,16.32
2023-07-31T07:24:16.138Z,16.55
2023-07-31T07:26:45.057Z,16.58
2023-07-31T07:29:12.666Z,16.66
2023-07-31T07:31:40.437Z,16.66
2023-07-31T07:34:08.048Z,16.67
2023-07-31T07:36:35.652Z,16.83
2023-07-31T07:39:03.321Z,16.65
2023-07-31T07:41:30.915Z,16.74
2023-07-31T07:43:59.836Z,16.86
2023-07-31T07:46:27.528Z,16.80
2023-07-31T07:48:55.148Z,16.92
2023-07-31T07:51:22.734Z,16.98
2023-07-31T07:53:50.333Z,16.97
2023-07-31T07:56:17.933Z,16.77
2023-07-31T07:58:45.608Z,16.97
2023-07-31T08:01:14.621Z,16.94
2023-07-31T08:03:42.278Z,17.04
2023-07-31T08:06:10.428Z,17.04
2023-07-31T08:08:38.301Z,17.21
2023-07-31T08:11:06.226Z,17.20
2023-07-31T08:13:33.834Z,17.26
2023-07-31T08:16:01.465Z,17.15
2023-07-31T08:18:30.441Z,17.27
2023-07-31T08:20:58.054Z,17.37
2023-07-31T08:23:25.755Z,17.29
2023-07-31T08:25:53.346Z,17.39
2023-07-31T08:28:21.064Z,17.36
2023-07-31T08:30:48.844Z,17.52
2023-07-31T08:33:16.546Z,17.41
2023-07-31T08:35:45.528Z,17.41
2023-07-31T08:38:14.310Z,17.55
2023-07-31T08:40:41.980Z,17.58
2023-07-31T08:43:10.997Z,17.61
2023-07-31T08:45:39.308Z,17.75
2023-07-31T08:48:07.886Z,17.70
2023-07-31T08:50:35.737Z,17.71
2023-07-31T08:53:04.717Z,17.71
2023-07-31T08:55:33.656Z,17.68
2023-07-31T08:58:03.128Z,17.64
2023-07-31T09:00:32.028Z,17.55
2023-07-31T09:03:03.297Z,17.74
2023-07-31T09:05:32.680Z,17.68
2023-07-31T09:08:00.507Z,17.74
2023-07-31T09:10:29.539Z,17.70
2023-07-31T09:12:57.861Z,17.55
2023-07-31T09:15:36.740Z,17.71
2023-07-31T09:18:08.068Z,17.62
2023-07-31T09:20:35.846Z,17.66
2023-07-31T09:23:10.791Z,17.45
2023-07-31T09:25:40.804Z,17.46
2023-07-31T09:28:09.998Z,17.43
2023-07-31T09:30:48.961Z,17.67
2023-07-31T09:33:16.682Z,17.53
2023-07-31T09:35:44.948Z,17.48
2023-07-31T09:38:15.217Z,17.53
2023-07-31T09:40:45.799Z,17.55
2023-07-31T09:43:15.336Z,17.76
2023-07-31T09:45:44.751Z,17.87
2023-07-31T09:48:14.134Z,17.85
2023-07-31T09:50:43.802Z,17.85
2023-07-31T09:53:11.937Z,17.90
2023-07-31T09:55:40.602Z,17.91
2023-07-31T09:58:11.484Z,17.99
2023-07-31T10:00:39.602Z,18.12
2023-07-31T10:03:09.269Z,17.96
2023-07-31T10:05:39.836Z,18.18
2023-07-31T10:08:10.161Z,18.17
2023-07-31T10:10:39.679Z,17.83
2023-07-31T10:13:09.580Z,18.03
2023-07-31T10:15:38.272Z,18.21
2023-07-31T10:18:08.511Z,18.14
2023-07-31T10:20:36.495Z,18.18
2023-07-31T10:23:05.118Z,18.15
2023-07-31T10:25:34.108Z,18.26
2023-07-31T10:28:01.997Z,18.20
2023-07-31T10:30:34.577Z,18.26
2023-07-31T10:33:03.383Z,18.37
2023-07-31T10:35:31.167Z,18.35
2023-07-31T10:38:11.679Z,18.38
2023-07-31T10:40:39.496Z,18.42
2023-07-31T10:43:09.589Z,18.47
2023-07-31T10:45:40.763Z,18.50
2023-07-31T10:48:14.185Z,18.46
2023-07-31T10:50:50.359Z,18.60
2023-07-31T10:53:25.402Z,18.85
2023-07-31T10:55:53.481Z,19.03
2023-07-31T10:58:22.635Z,19.15
2023-07-31T11:00:51.951Z,19.27
2023-07-31T11:03:23.427Z,19.37
2023-07-31T11:05:56.074Z,19.44
2023-07-31T11:08:24.384Z,19.52
2023-07-31T11:10:53.612Z,19.54
2023-07-31T11:13:21.185Z,19.45
2023-07-31T11:15:48.991Z,19.50
2023-07-31T11:18:18.057Z,19.50
2023-07-31T11:20:46.364Z,19.40
2023-07-31T11:23:14.644Z,19.38
2023-07-31T11:25:42.995Z,19.33
2023-07-31T11:28:12.306Z,19.33
2023-07-31T11:30:41.007Z,19.47
2023-07-31T11:33:10.096Z,19.38
2023-07-31T11:35:45.764Z,19.34
2023-07-31T11:38:14.120Z,19.34
2023-07-31T11:40:45.509Z,19.35
2023-07-31T11:43:17.424Z,19.42
2023-07-31T11:45:48.612Z,19.33
2023-07-31T11:48:21.892Z,19.39
2023-07-31T11:50:52.706Z,19.28
2023-07-31T11:53:24.480Z,19.34
2023-07-31T11:55:52.614Z,19.31
2023-07-31T11:58:21.543Z,19.32
2023-07-31T12:00:50.661Z,19.32
2023-07-31T12:03:18.556Z,19.37
2023-07-31T12:05:46.889Z,19.37
2023-07-31T12:08:17.152Z,19.40
2023-07-31T12:10:46.411Z,19.36
2023-07-31T12:13:23.426Z,19.45
2023-07-31T12:15:56.327Z,19.48
2023-07-31T12:18:24.326Z,19.48
2023-07-31T12:20:57.144Z,19.60
2023-07-31T12:23:29.724Z,19.64
2023-07-31T12:26:03.954Z,19.64
2023-07-31T12:28:32.196Z,19.68
2023-07-31T12:31:01.276Z,19.68
2023-07-31T12:33:34.214Z,19.76
2023-07-31T12:36:03.729Z,19.65
2023-07-31T12:38:33.034Z,19.72
2023-07-31T12:41:00.611Z,19.61
2023-07-31T12:43:28.577Z,19.62
2023-07-31T12:45:57.392Z,19.67
2023-07-31T12:48:25.038Z,19.71
2023-07-31T12:50:52.715Z,19.90
2023-07-31T12:53:20.383Z,20.04
2023-07-31T12:55:49.693Z,20.01
2023-07-31T12:58:17.427Z,19.96
2023-07-31T13:00:45.147Z,20.01
2023-07-31T13:03:12.990Z,20.03
2023-07-31T13:05:40.790Z,19.94
2023-07-31T13:08:08.702Z,19.81
2023-07-31T13:10:36.320Z,19.88
2023-07-31T13:13:05.744Z,19.97
2023-07-31T13:15:33.472Z,20.04
2023-07-31T13:18:01.214Z,19.93
2023-07-31T13:20:28.957Z,20.11
2023-07-31T13:22:56.540Z,20.05
2023-07-31T13:25:24.199Z,20.08
2023-07-31T13:27:51.866Z,20.08
2023-07-31T13:30:20.906Z,20.20
2023-07-31T13:32:48.537Z,20.19
2023-07-31T13:35:16.148Z,20.19
2023-07-31T13:37:43.776Z,20.18
2023-07-31T13:40:12.496Z,19.97
2023-07-31T13:42:40.193Z,19.99
2023-07-31T13:45:08.548Z,19.95
2023-07-31T13:47:38.451Z,19.98
2023-07-31T13:50:07.227Z,20.00
2023-07-31T13:52:34.870Z,19.98
2023-07-31T13:55:02.501Z,20.06
2023-07-31T13:57:30.532Z,20.04
2023-07-31T13:59:58.213Z,19.98
2023-07-31T14:02:25.884Z,19.97
2023-07-31T14:04:54.907Z,20.03
2023-07-31T14:07:22.524Z,19.99
2023-07-31T14:09:50.115Z,19.83
2023-07-31T14:12:28.260Z,19.66
2023-07-31T14:15:04.011Z,19.50
2023-07-31T14:17:31.754Z,19.38
2023-07-31T14:20:01.187Z,19.23
2023-07-31T14:22:32.143Z,19.19
2023-07-31T14:24:59.772Z,19.14
2023-07-31T14:27:27.647Z,18.91
2023-07-31T14:29:55.358Z,18.97
2023-07-31T14:32:26.639Z,18.85
2023-07-31T14:34:55.632Z,18.89
2023-07-31T14:37:25.158Z,18.95
2023-07-31T14:39:52.982Z,19.12
2023-07-31T14:42:20.832Z,19.05
2023-07-31T14:44:49.184Z,19.14
2023-07-31T14:47:16.803Z,19.17
2023-07-31T14:49:44.421Z,19.16
2023-07-31T14:52:12.095Z,19.03
2023-07-31T14:54:41.081Z,19.20
2023-07-31T14:57:08.914Z,19.07
2023-07-31T14:59:36.535Z,19.19
2023-07-31T15:02:04.490Z,19.14
2023-07-31T15:04:34.185Z,19.18
2023-07-31T15:07:01.990Z,19.15
2023-07-31T15:09:29.848Z,19.14
2023-07-31T15:11:59.447Z,19.20
2023-07-31T15:14:28.514Z,19.26
2023-07-31T15:16:56.263Z,19.51
2023-07-31T15:19:24.304Z,19.60
2023-07-31T15:21:52.586Z,19.62
2023-07-31T15:24:21.476Z,19.76
2023-07-31T15:26:49.091Z,19.88
2023-07-31T15:29:20.766Z,19.94
2023-07-31T15:31:48.821Z,20.05
2023-07-31T15:34:17.193Z,19.93
2023-07-31T15:36:44.971Z,19.99
2023-07-31T15:39:12.639Z,19.87
2023-07-31T15:41:40.927Z,19.92
2023-07-31T15:44:08.675Z,20.01
2023-07-31T15:46:37.725Z,20.16
2023-07-31T15:49:05.482Z,20.14
2023-07-31T15:51:33.252Z,20.15
2023-07-31T15:54:00.895Z,20.06
2023-07-31T15:56:28.594Z,19.94
2023-07-31T15:58:58.809Z,19.90
2023-07-31T16:01:26.571Z,19.83
2023-07-31T16:03:55.593Z,19.82
2023-07-31T16:06:23.322Z,19.73
2023-07-31T16:08:51.003Z,19.67
2023-07-31T16:11:18.633Z,19.71
2023-07-31T16:13:46.234Z,19.60
2023-07-31T16:16:13.914Z,19.54
2023-07-31T16:18:41.512Z,19.57
2023-07-31T16:21:10.500Z,19.60
2023-07-31T16:23:38.092Z,19.64
2023-07-31T16:26:05.742Z,19.67
2023-07-31T16:28:33.367Z,19.67
2023-07-31T16:31:01.041Z,19.68
2023-07-31T16:33:28.788Z,19.66
2023-07-31T16:35:56.480Z,19.68
2023-07-31T16:38:25.469Z,19.63
2023-07-31T16:40:53.204Z,19.63
2023-07-31T16:43:20.845Z,19.64
2023-07-31T16:45:48.673Z,19.66
2023-07-31T16:48:16.354Z,19.61
2023-07-31T16:50:43.991Z,19.55
2023-07-31T16:53:11.702Z,19.56
2023-07-31T16:55:40.824Z,19.50
2023-07-31T16:58:08.516Z,19.49
2023-07-31T17:00:36.280Z,19.46
2023-07-31T17:03:05.354Z,19.50
2023-07-31T17:05:33.259Z,19.47
2023-07-31T17:08:00.897Z,19.42
2023-07-31T17:10:28.586Z,19.49
2023-07-31T17:12:57.603Z,19.39
2023-07-31T17:15:25.180Z,19.38
2023-07-31T17:17:55.129Z,19.43
2023-07-31T17:20:22.736Z,19.37
2023-07-31T17:22:50.356Z,19.34
2023-07-31T17:25:19.792Z,19.34
2023-07-31T17:27:50.034Z,19.24
2023-07-31T17:30:20.409Z,19.22
2023-07-31T17:32:48.101Z,19.17
2023-07-31T17:35:16.059Z,19.09
2023-07-31T17:37:43.724Z,19.17
2023-07-31T17:40:12.590Z,19.14
2023-07-31T17:42:40.180Z,19.14
2023-07-31T17:45:08.653Z,19.09
2023-07-31T17:47:37.632Z,18.98
2023-07-31T17:50:05.872Z,18.99
2023-07-31T17:52:36.340Z,19.03
2023-07-31T17:55:04.484Z,18.85
2023-07-31T17:57:32.091Z,18.93
2023-07-31T17:59:59.694Z,18.93
2023-07-31T18:02:27.408Z,18.89
2023-07-31T18:04:56.432Z,18.90
2023-07-31T18:07:24.254Z,18.91
2023-07-31T18:09:51.862Z,18.66
2023-07-31T18:12:19.451Z,18.83
2023-07-31T18:14:47.055Z,18.82
2023-07-31T18:17:15.556Z,18.74
2023-07-31T18:19:43.218Z,18.76
2023-07-31T18:22:12.174Z,18.72
2023-07-31T18:24:39.828Z,18.73
2023-07-31T18:27:07.710Z,18.72
2023-07-31T18:29:36.553Z,18.69
2023-07-31T18:32:04.563Z,18.69
2023-07-31T18:34:32.170Z,18.71
2023-07-31T18:36:59.756Z,18.70
2023-07-31T18:39:28.732Z,18.67
2023-07-31T18:41:56.419Z,18.69
2023-07-31T18:44:24.098Z,18.64
2023-07-31T18:46:51.739Z,18.64
2023-07-31T18:49:19.430Z,18.63
2023-07-31T20:07:20.305Z,17.81
2023-07-31T20:09:47.968Z,17.60
2023-07-31T20:12:15.613Z,17.73
2023-07-31T20:14:43.187Z,17.77
2023-07-31T20:17:10.875Z,17.74
2023-07-31T20:19:38.507Z,17.78
2023-07-31T20:22:06.675Z,17.42
2023-07-31T20:24:35.735Z,17.48
2023-07-31T20:27:03.421Z,17.45
2023-07-31T20:29:30.983Z,17.65
2023-07-31T20:31:58.553Z,17.63
2023-07-31T20:34:26.204Z,17.30
2023-07-31T20:36:53.807Z,17.47
2023-07-31T20:39:21.409Z,17.54
2023-07-31T20:41:51.012Z,17.38
2023-07-31T20:44:18.638Z,17.59
2023-07-31T20:46:46.218Z,17.64
2023-07-31T20:49:13.840Z,17.47
2023-07-31T20:51:44.719Z,17.51
2023-07-31T20:54:13.083Z,17.46
2023-07-31T20:56:41.024Z,17.64
2023-07-31T20:59:10.558Z,17.42
2023-07-31T21:01:38.199Z,17.50
2023-07-31T21:04:06.855Z,17.17
2023-07-31T21:06:34.527Z,17.26
2023-07-31T21:09:02.104Z,17.46
2023-07-31T21:11:29.695Z,17.21
2023-07-31T21:13:59.582Z,17.34
2023-07-31T21:16:28.633Z,17.28
2023-07-31T21:18:56.687Z,17.41
2023-07-31T21:21:24.385Z,17.13
2023-07-31T21:23:52.012Z,17.13
2023-07-31T21:26:19.574Z,17.16
2023-07-31T21:28:47.181Z,17.01
2023-07-31T21:31:16.228Z,17.14
2023-07-31T21:33:45.284Z,17.23
2023-07-31T21:36:13.500Z,17.17
2023-07-31T21:38:41.474Z,17.24
2023-07-31T21:41:09.362Z,17.10
2023-07-31T21:43:37.157Z,16.99
2023-07-31T21:46:04.885Z,17.07
2023-07-31T21:48:32.529Z,17.16
2023-07-31T21:51:02.071Z,17.01
2023-07-31T21:53:29.731Z,17.24
2023-07-31T21:55:57.345Z,17.24
2023-07-31T21:58:25.337Z,17.26
2023-07-31T22:00:53.149Z,17.19
2023-07-31T22:03:21.022Z,17.14
2023-07-31T22:05:48.961Z,17.12
2023-07-31T22:08:18.042Z,16.93
2023-07-31T22:10:45.686Z,16.99
2023-07-31T22:13:13.657Z,17.03
2023-07-31T22:15:41.860Z,16.96
2023-07-31T22:18:09.967Z,17.12
2023-07-31T22:20:40.232Z,17.13
2023-07-31T22:23:08.088Z,17.00
2023-07-31T22:25:37.084Z,17.03
2023-07-31T22:28:20.182Z,16.92
2023-07-31T22:30:49.020Z,16.88
2023-07-31T22:33:17.222Z,16.74
2023-07-31T22:35:45.002Z,16.95
2023-07-31T22:38:12.684Z,17.08
2023-07-31T22:40:41.639Z,17.00
2023-07-31T22:43:09.540Z,16.75
2023-07-31T22:45:37.532Z,16.62
2023-07-31T22:48:05.406Z,16.69
2023-07-31T22:50:33.631Z,16.64
2023-07-31T22:53:01.716Z,16.76
2023-07-31T22:55:29.465Z,16.80
2023-07-31T22:57:58.420Z,16.89
2023-07-31T23:00:26.990Z,16.55
2023-07-31T23:02:54.900Z,16.65
2023-07-31T23:05:22.576Z,16.60
2023-07-31T23:07:50.232Z,16.63
2023-07-31T23:10:18.140Z,16.54
2023-07-31T23:12:45.914Z,16.60
2023-07-31T23:15:15.704Z,16.66
2023-07-31T23:17:43.759Z,16.64
2023-07-31T23:20:11.882Z,16.68
2023-07-31T23:22:39.495Z,16.75
2023-07-31T23:25:10.247Z,16.50
2023-07-31T23:27:37.847Z,16.55
2023-07-31T23:30:06.615Z,16.54
2023-07-31T23:32:35.564Z,16.66
2023-07-31T23:35:03.263Z,16.68
2023-07-31T23:37:30.931Z,16.67
2023-07-31T23:39:58.552Z,16.39
2023-07-31T23:42:26.459Z,16.35
2023-07-31T23:45:05.088Z,16.34
2023-07-31T23:47:37.833Z,16.28
2023-07-31T23:50:06.248Z,16.25
2023-07-31T23:52:35.550Z,16.23
2023-07-31T23:55:03.550Z,16.13
2023-07-31T23:57:31.603Z,16.45
2023-07-31T23:59:59.225Z,16.32
